Adena, OH (43901)

2:49 PM EDT on September 03, 2015 (GMT -0400)
Crawford Heights | | Change Station
CLOSE
Current Station
Personal Weather Station
Location: Martins Ferry, OH
Elevation: 1109 ft
Nearby Weather Stations

Elev 1109 ft 40.09 °N, 80.75 °W | Updated 13 minutes ago

Clear
Clear
91.8 °F
Feels Like 99 °F
N
5.8
Wind Variable Wind from WNW

Today
High -- | Low -- °F
--% Chance of Precip.
Yesterday
High -- | Low -- °F
Precip. -- in
6:52 AM 7:52 PM
Waning Gibbous, 68% visible
Pressure 29.97 in
Visibility 9.0 miles
Clouds Few 3900 ft
Mostly Cloudy 9000 ft
Heat Index 99 °F
Dew Point 71 °F
Humidity 51%
Rainfall 0.02 in
Snow Depth Not available.
UV 5 out of 12
Pollen 10.10 out of 12
Air Quality Not available.
Flu Activity Not available.
METAR KHLG 031753Z 31004KT 9SM FEW039 BKN090 29/20 A2999 RMK AO2 LTG DSNT W SLP147 T02940200 10300 20206 58010
Pressure 29.97 in
Visibility 9.0 miles
Clouds Few 3900 ft
Mostly Cloudy 9000 ft
Heat Index 99 °F
Dew Point 71 °F
Humidity 51%
Rainfall 0.02 in
Snow Depth Not available.
UV 5 out of 12
Pollen 10.10 out of 12
Air Quality Not available.
Flu Activity Not available.
METAR KHLG 031753Z 31004KT 9SM FEW039 BKN090 29/20 A2999 RMK AO2 LTG DSNT W SLP147 T02940200 10300 20206 58010

10-Day Weather Forecast

×

Almanac

Astronomy

Sep. 03, 2015 Rise Set
Actual Time
Civil Twilight
Nautical Twilight
Astronomical Twilight
Moon
Length of Visible Light
Length of Day
Tomorrow will be .
, % of the Moon is Illuminated

Today's Extremes

State Highs State Lows

Community

WunderPhotos

Upload Photos

1,852,001 photos uploaded!

WunderBlogs® & News

Nearby

Air Quality

  Air Quality AQ Index Pollutant
Not available.

Snow Depth

Station Depth Elevation

Earthquake Activity

City Distance Mag. Time & Date
Minimum magnitude displayed is 2.5.

Coastal Water Temperatures

Place Temperature

Stations

Nearby Weather Stations

Station Location Temp. Windchill Dew Point Humidity Wind Precip. Elev Updated Type